sensor_id;sensor_type;location;lat;lon;timestamp;P1;durP1;ratioP1;P2;durP2;ratioP2
23634;SDS011;11994;51.038;16.974;2023-02-12T00:01:29;18.80;;;14.40;;
23634;SDS011;11994;51.038;16.974;2023-02-12T00:03:55;18.20;;;14.40;;
23634;SDS011;11994;51.038;16.974;2023-02-12T00:06:20;19.50;;;15.40;;
23634;SDS011;11994;51.038;16.974;2023-02-12T00:08:50;20.50;;;15.50;;
23634;SDS011;11994;51.038;16.974;2023-02-12T00:11:18;17.50;;;14.30;;
23634;SDS011;11994;51.038;16.974;2023-02-12T00:13:45;17.90;;;14.60;;
23634;SDS011;11994;51.038;16.974;2023-02-12T00:16:12;18.50;;;13.70;;
23634;SDS011;11994;51.038;16.974;2023-02-12T00:18:39;21.20;;;16.10;;
23634;SDS011;11994;51.038;16.974;2023-02-12T00:21:05;22.80;;;15.40;;
23634;SDS011;11994;51.038;16.974;2023-02-12T00:23:34;17.90;;;15.40;;
23634;SDS011;11994;51.038;16.974;2023-02-12T00:26:14;20.30;;;15.30;;
23634;SDS011;11994;51.038;16.974;2023-02-12T00:28:41;22.50;;;15.20;;
23634;SDS011;11994;51.038;16.974;2023-02-12T00:31:11;19.90;;;15.50;;
23634;SDS011;11994;51.038;16.974;2023-02-12T00:33:38;23.50;;;17.50;;
23634;SDS011;11994;51.038;16.974;2023-02-12T00:36:04;22.90;;;16.30;;
23634;SDS011;11994;51.038;16.974;2023-02-12T00:38:30;21.10;;;15.30;;
23634;SDS011;11994;51.038;16.974;2023-02-12T00:40:55;22.10;;;15.60;;
23634;SDS011;11994;51.038;16.974;2023-02-12T00:43:21;19.80;;;15.80;;
23634;SDS011;11994;51.038;16.974;2023-02-12T00:45:47;23.10;;;16.40;;
23634;SDS011;11994;51.038;16.974;2023-02-12T00:48:12;23.80;;;17.60;;
23634;SDS011;11994;51.038;16.974;2023-02-12T00:50:38;25.00;;;17.60;;
23634;SDS011;11994;51.038;16.974;2023-02-12T00:53:05;22.50;;;17.50;;
23634;SDS011;11994;51.038;16.974;2023-02-12T00:55:31;21.20;;;16.30;;
23634;SDS011;11994;51.038;16.974;2023-02-12T00:57:57;20.10;;;15.00;;
23634;SDS011;11994;51.038;16.974;2023-02-12T01:00:23;21.70;;;15.60;;
23634;SDS011;11994;51.038;16.974;2023-02-12T01:02:48;25.00;;;17.10;;
23634;SDS011;11994;51.038;16.974;2023-02-12T01:05:13;22.70;;;17.00;;
23634;SDS011;11994;51.038;16.974;2023-02-12T01:07:39;23.90;;;15.80;;
23634;SDS011;11994;51.038;16.974;2023-02-12T01:10:05;23.40;;;15.60;;
23634;SDS011;11994;51.038;16.974;2023-02-12T01:12:31;22.00;;;15.50;;
23634;SDS011;11994;51.038;16.974;2023-02-12T01:14:57;21.10;;;15.80;;
23634;SDS011;11994;51.038;16.974;2023-02-12T01:17:22;22.80;;;15.60;;
23634;SDS011;11994;51.038;16.974;2023-02-12T01:19:48;22.00;;;16.00;;
23634;SDS011;11994;51.038;16.974;2023-02-12T01:22:13;18.20;;;14.00;;
23634;SDS011;11994;51.038;16.974;2023-02-12T01:24:39;20.60;;;13.90;;
23634;SDS011;11994;51.038;16.974;2023-02-12T01:27:04;21.30;;;15.00;;
23634;SDS011;11994;51.038;16.974;2023-02-12T01:29:29;25.50;;;16.40;;
23634;SDS011;11994;51.038;16.974;2023-02-12T01:31:55;22.10;;;15.40;;
23634;SDS011;11994;51.038;16.974;2023-02-12T01:34:20;17.80;;;13.60;;
23634;SDS011;11994;51.038;16.974;2023-02-12T01:36:45;20.70;;;13.70;;
23634;SDS011;11994;51.038;16.974;2023-02-12T01:39:11;19.20;;;13.70;;
23634;SDS011;11994;51.038;16.974;2023-02-12T01:41:40;20.30;;;15.10;;
23634;SDS011;11994;51.038;16.974;2023-02-12T01:44:09;23.10;;;15.80;;
23634;SDS011;11994;51.038;16.974;2023-02-12T01:46:37;22.80;;;15.00;;
23634;SDS011;11994;51.038;16.974;2023-02-12T01:49:04;21.10;;;13.80;;
23634;SDS011;11994;51.038;16.974;2023-02-12T01:51:31;21.30;;;14.20;;
23634;SDS011;11994;51.038;16.974;2023-02-12T01:53:58;20.20;;;14.90;;
23634;SDS011;11994;51.038;16.974;2023-02-12T01:56:26;24.90;;;15.50;;
23634;SDS011;11994;51.038;16.974;2023-02-12T01:58:53;23.10;;;15.20;;
23634;SDS011;11994;51.038;16.974;2023-02-12T02:01:22;22.90;;;14.60;;
23634;SDS011;11994;51.038;16.974;2023-02-12T02:03:51;26.20;;;15.50;;
23634;SDS011;11994;51.038;16.974;2023-02-12T02:06:27;22.30;;;15.20;;
23634;SDS011;11994;51.038;16.974;2023-02-12T02:08:56;23.90;;;15.20;;
23634;SDS011;11994;51.038;16.974;2023-02-12T02:11:21;23.00;;;14.50;;
23634;SDS011;11994;51.038;16.974;2023-02-12T02:14:06;22.80;;;14.30;;
23634;SDS011;11994;51.038;16.974;2023-02-12T02:16:58;21.10;;;13.70;;
23634;SDS011;11994;51.038;16.974;2023-02-12T02:27:39;20.20;;;14.00;;
23634;SDS011;11994;51.038;16.974;2023-02-12T02:40:49;24.00;;;15.60;;
23634;SDS011;11994;51.038;16.974;2023-02-12T02:43:39;25.90;;;14.80;;
23634;SDS011;11994;51.038;16.974;2023-02-12T02:46:13;21.20;;;12.90;;
23634;SDS011;11994;51.038;16.974;2023-02-12T02:48:51;18.70;;;13.00;;
23634;SDS011;11994;51.038;16.974;2023-02-12T02:51:20;20.10;;;12.90;;
23634;SDS011;11994;51.038;16.974;2023-02-12T02:53:57;20.80;;;14.60;;
23634;SDS011;11994;51.038;16.974;2023-02-12T02:56:24;22.50;;;15.30;;
23634;SDS011;11994;51.038;16.974;2023-02-12T02:59:02;22.60;;;14.60;;
23634;SDS011;11994;51.038;16.974;2023-02-12T03:01:36;27.20;;;14.00;;
23634;SDS011;11994;51.038;16.974;2023-02-12T03:04:11;23.80;;;13.40;;
23634;SDS011;11994;51.038;16.974;2023-02-12T03:06:47;22.60;;;14.30;;
23634;SDS011;11994;51.038;16.974;2023-02-12T03:09:21;24.70;;;15.00;;
23634;SDS011;11994;51.038;16.974;2023-02-12T03:11:51;25.10;;;14.30;;
23634;SDS011;11994;51.038;16.974;2023-02-12T03:14:25;21.00;;;13.60;;
23634;SDS011;11994;51.038;16.974;2023-02-12T03:19:41;25.40;;;15.70;;
23634;SDS011;11994;51.038;16.974;2023-02-12T03:22:21;24.70;;;14.80;;
23634;SDS011;11994;51.038;16.974;2023-02-12T03:27:46;20.80;;;13.90;;
23634;SDS011;11994;51.038;16.974;2023-02-12T03:30:16;24.30;;;14.00;;
23634;SDS011;11994;51.038;16.974;2023-02-12T03:37:55;24.50;;;13.60;;
23634;SDS011;11994;51.038;16.974;2023-02-12T03:40:31;22.10;;;13.40;;
23634;SDS011;11994;51.038;16.974;2023-02-12T03:45:56;23.30;;;14.90;;
23634;SDS011;11994;51.038;16.974;2023-02-12T03:51:37;22.80;;;13.00;;
23634;SDS011;11994;51.038;16.974;2023-02-12T03:54:05;20.00;;;12.40;;
23634;SDS011;11994;51.038;16.974;2023-02-12T03:56:41;21.00;;;12.00;;
23634;SDS011;11994;51.038;16.974;2023-02-12T03:59:13;21.50;;;12.10;;
23634;SDS011;11994;51.038;16.974;2023-02-12T04:01:38;23.60;;;13.30;;
23634;SDS011;11994;51.038;16.974;2023-02-12T04:04:05;23.00;;;13.00;;
23634;SDS011;11994;51.038;16.974;2023-02-12T04:06:32;23.70;;;12.70;;
23634;SDS011;11994;51.038;16.974;2023-02-12T04:09:00;22.80;;;11.00;;
23634;SDS011;11994;51.038;16.974;2023-02-12T04:11:29;21.20;;;12.90;;
23634;SDS011;11994;51.038;16.974;2023-02-12T04:14:14;23.70;;;12.90;;
23634;SDS011;11994;51.038;16.974;2023-02-12T04:16:51;19.70;;;12.00;;
23634;SDS011;11994;51.038;16.974;2023-02-12T04:19:35;22.80;;;11.60;;
23634;SDS011;11994;51.038;16.974;2023-02-12T04:24:47;20.70;;;12.60;;
23634;SDS011;11994;51.038;16.974;2023-02-12T04:27:24;29.40;;;13.10;;
23634;SDS011;11994;51.038;16.974;2023-02-12T04:30:20;21.10;;;11.60;;
23634;SDS011;11994;51.038;16.974;2023-02-12T04:33:01;21.30;;;12.20;;
23634;SDS011;11994;51.038;16.974;2023-02-12T04:35:35;19.80;;;11.40;;
23634;SDS011;11994;51.038;16.974;2023-02-12T04:38:27;23.20;;;11.80;;
23634;SDS011;11994;51.038;16.974;2023-02-12T04:41:01;23.40;;;13.00;;
23634;SDS011;11994;51.038;16.974;2023-02-12T04:43:31;19.10;;;12.00;;
23634;SDS011;11994;51.038;16.974;2023-02-12T04:45:59;21.40;;;11.60;;
23634;SDS011;11994;51.038;16.974;2023-02-12T04:48:25;17.90;;;10.80;;
23634;SDS011;11994;51.038;16.974;2023-02-12T04:50:50;22.80;;;11.10;;
23634;SDS011;11994;51.038;16.974;2023-02-12T04:53:16;21.70;;;12.10;;
23634;SDS011;11994;51.038;16.974;2023-02-12T04:55:41;20.20;;;11.50;;
23634;SDS011;11994;51.038;16.974;2023-02-12T04:58:07;23.70;;;10.90;;
23634;SDS011;11994;51.038;16.974;2023-02-12T05:00:33;20.70;;;11.10;;
23634;SDS011;11994;51.038;16.974;2023-02-12T05:02:58;27.70;;;12.80;;
23634;SDS011;11994;51.038;16.974;2023-02-12T05:05:23;25.80;;;12.40;;
23634;SDS011;11994;51.038;16.974;2023-02-12T05:07:49;22.20;;;11.80;;
23634;SDS011;11994;51.038;16.974;2023-02-12T05:10:14;21.80;;;10.90;;
23634;SDS011;11994;51.038;16.974;2023-02-12T05:12:40;19.10;;;10.90;;
23634;SDS011;11994;51.038;16.974;2023-02-12T05:15:05;22.80;;;11.30;;
23634;SDS011;11994;51.038;16.974;2023-02-12T05:17:31;21.70;;;11.80;;
23634;SDS011;11994;51.038;16.974;2023-02-12T05:19:56;27.70;;;11.90;;
23634;SDS011;11994;51.038;16.974;2023-02-12T05:22:22;20.90;;;11.40;;
23634;SDS011;11994;51.038;16.974;2023-02-12T05:24:47;23.90;;;11.60;;
23634;SDS011;11994;51.038;16.974;2023-02-12T05:27:13;20.60;;;12.30;;
23634;SDS011;11994;51.038;16.974;2023-02-12T05:29:38;24.90;;;12.40;;
23634;SDS011;11994;51.038;16.974;2023-02-12T05:32:04;23.60;;;12.30;;
23634;SDS011;11994;51.038;16.974;2023-02-12T05:34:30;22.20;;;11.20;;
23634;SDS011;11994;51.038;16.974;2023-02-12T05:36:56;26.20;;;10.30;;
23634;SDS011;11994;51.038;16.974;2023-02-12T05:39:22;20.70;;;10.80;;
23634;SDS011;11994;51.038;16.974;2023-02-12T05:41:47;20.10;;;11.10;;
23634;SDS011;11994;51.038;16.974;2023-02-12T05:44:12;22.30;;;11.90;;
23634;SDS011;11994;51.038;16.974;2023-02-12T05:46:39;23.90;;;11.70;;
23634;SDS011;11994;51.038;16.974;2023-02-12T05:49:05;23.70;;;11.90;;
23634;SDS011;11994;51.038;16.974;2023-02-12T05:51:32;21.50;;;9.90;;
23634;SDS011;11994;51.038;16.974;2023-02-12T05:53:59;22.00;;;10.60;;
23634;SDS011;11994;51.038;16.974;2023-02-12T05:56:28;19.90;;;11.40;;
23634;SDS011;11994;51.038;16.974;2023-02-12T05:58:59;26.20;;;11.30;;
23634;SDS011;11994;51.038;16.974;2023-02-12T06:01:31;26.50;;;12.00;;
23634;SDS011;11994;51.038;16.974;2023-02-12T06:03:59;28.20;;;11.60;;
23634;SDS011;11994;51.038;16.974;2023-02-12T06:06:26;20.30;;;10.30;;
23634;SDS011;11994;51.038;16.974;2023-02-12T06:08:53;23.80;;;11.80;;
23634;SDS011;11994;51.038;16.974;2023-02-12T06:11:18;20.30;;;10.90;;
23634;SDS011;11994;51.038;16.974;2023-02-12T06:13:44;26.00;;;11.90;;
23634;SDS011;11994;51.038;16.974;2023-02-12T06:18:47;26.10;;;11.50;;
23634;SDS011;11994;51.038;16.974;2023-02-12T06:21:13;24.10;;;11.80;;
23634;SDS011;11994;51.038;16.974;2023-02-12T06:23:39;25.30;;;12.20;;
23634;SDS011;11994;51.038;16.974;2023-02-12T06:26:05;26.20;;;11.70;;
23634;SDS011;11994;51.038;16.974;2023-02-12T06:28:30;21.00;;;11.50;;
23634;SDS011;11994;51.038;16.974;2023-02-12T06:30:55;22.60;;;12.20;;
23634;SDS011;11994;51.038;16.974;2023-02-12T06:33:21;23.40;;;11.20;;
23634;SDS011;11994;51.038;16.974;2023-02-12T06:35:46;23.70;;;12.30;;
23634;SDS011;11994;51.038;16.974;2023-02-12T06:38:11;23.80;;;12.50;;
23634;SDS011;11994;51.038;16.974;2023-02-12T06:40:37;28.20;;;12.30;;
23634;SDS011;11994;51.038;16.974;2023-02-12T06:43:02;30.20;;;12.90;;
23634;SDS011;11994;51.038;16.974;2023-02-12T06:45:28;26.40;;;12.80;;
23634;SDS011;11994;51.038;16.974;2023-02-12T06:47:53;26.00;;;12.50;;
23634;SDS011;11994;51.038;16.974;2023-02-12T06:50:19;28.30;;;12.20;;
23634;SDS011;11994;51.038;16.974;2023-02-12T06:52:45;24.30;;;11.70;;
23634;SDS011;11994;51.038;16.974;2023-02-12T06:55:10;25.60;;;11.90;;
23634;SDS011;11994;51.038;16.974;2023-02-12T06:57:35;33.30;;;13.00;;
23634;SDS011;11994;51.038;16.974;2023-02-12T07:00:01;27.20;;;13.80;;
23634;SDS011;11994;51.038;16.974;2023-02-12T07:02:26;29.40;;;13.90;;
23634;SDS011;11994;51.038;16.974;2023-02-12T07:04:51;23.30;;;12.50;;
23634;SDS011;11994;51.038;16.974;2023-02-12T07:07:17;34.50;;;13.20;;
23634;SDS011;11994;51.038;16.974;2023-02-12T07:09:42;28.00;;;13.20;;
23634;SDS011;11994;51.038;16.974;2023-02-12T07:12:08;34.70;;;13.90;;
23634;SDS011;11994;51.038;16.974;2023-02-12T07:14:33;29.70;;;13.10;;
23634;SDS011;11994;51.038;16.974;2023-02-12T07:16:58;26.10;;;13.30;;
23634;SDS011;11994;51.038;16.974;2023-02-12T07:19:27;31.80;;;16.60;;
23634;SDS011;11994;51.038;16.974;2023-02-12T07:21:54;38.20;;;21.00;;
23634;SDS011;11994;51.038;16.974;2023-02-12T07:24:19;45.50;;;23.50;;
23634;SDS011;11994;51.038;16.974;2023-02-12T07:26:45;60.80;;;26.90;;
23634;SDS011;11994;51.038;16.974;2023-02-12T07:29:10;101.40;;;46.00;;
23634;SDS011;11994;51.038;16.974;2023-02-12T07:31:36;108.30;;;50.90;;
23634;SDS011;11994;51.038;16.974;2023-02-12T07:34:02;108.40;;;54.90;;
23634;SDS011;11994;51.038;16.974;2023-02-12T07:36:29;40.40;;;19.30;;
23634;SDS011;11994;51.038;16.974;2023-02-12T07:38:55;39.70;;;20.80;;
23634;SDS011;11994;51.038;16.974;2023-02-12T07:41:31;50.30;;;23.70;;
23634;SDS011;11994;51.038;16.974;2023-02-12T07:43:59;32.60;;;16.10;;
23634;SDS011;11994;51.038;16.974;2023-02-12T07:46:32;29.70;;;17.30;;
23634;SDS011;11994;51.038;16.974;2023-02-12T07:49:00;31.50;;;16.00;;
23634;SDS011;11994;51.038;16.974;2023-02-12T07:51:29;29.90;;;15.20;;
23634;SDS011;11994;51.038;16.974;2023-02-12T07:53:56;34.80;;;15.10;;
23634;SDS011;11994;51.038;16.974;2023-02-12T07:56:23;29.40;;;15.00;;
23634;SDS011;11994;51.038;16.974;2023-02-12T07:58:53;31.50;;;15.50;;
23634;SDS011;11994;51.038;16.974;2023-02-12T08:01:20;34.70;;;17.10;;
23634;SDS011;11994;51.038;16.974;2023-02-12T08:03:46;33.00;;;16.90;;
23634;SDS011;11994;51.038;16.974;2023-02-12T08:06:14;35.80;;;17.60;;
23634;SDS011;11994;51.038;16.974;2023-02-12T08:08:41;32.70;;;15.80;;
23634;SDS011;11994;51.038;16.974;2023-02-12T08:11:07;31.70;;;16.60;;
23634;SDS011;11994;51.038;16.974;2023-02-12T08:13:35;31.20;;;14.40;;
23634;SDS011;11994;51.038;16.974;2023-02-12T08:16:01;29.00;;;13.60;;
23634;SDS011;11994;51.038;16.974;2023-02-12T08:18:29;28.90;;;14.30;;
23634;SDS011;11994;51.038;16.974;2023-02-12T08:21:00;38.00;;;14.40;;
23634;SDS011;11994;51.038;16.974;2023-02-12T08:23:26;33.80;;;13.80;;
23634;SDS011;11994;51.038;16.974;2023-02-12T08:25:52;37.10;;;14.40;;
23634;SDS011;11994;51.038;16.974;2023-02-12T08:28:17;29.20;;;14.10;;
23634;SDS011;11994;51.038;16.974;2023-02-12T08:30:42;29.90;;;12.20;;
23634;SDS011;11994;51.038;16.974;2023-02-12T08:33:08;27.70;;;12.80;;
23634;SDS011;11994;51.038;16.974;2023-02-12T08:35:33;26.00;;;12.60;;
23634;SDS011;11994;51.038;16.974;2023-02-12T08:37:58;25.20;;;12.10;;
23634;SDS011;11994;51.038;16.974;2023-02-12T08:40:24;32.00;;;13.10;;
23634;SDS011;11994;51.038;16.974;2023-02-12T08:42:51;30.50;;;12.80;;
23634;SDS011;11994;51.038;16.974;2023-02-12T08:45:16;29.20;;;11.30;;
23634;SDS011;11994;51.038;16.974;2023-02-12T08:47:42;27.70;;;11.90;;
23634;SDS011;11994;51.038;16.974;2023-02-12T08:50:07;30.30;;;12.50;;
23634;SDS011;11994;51.038;16.974;2023-02-12T08:52:33;30.90;;;13.50;;
23634;SDS011;11994;51.038;16.974;2023-02-12T08:54:59;36.60;;;14.40;;
23634;SDS011;11994;51.038;16.974;2023-02-12T08:57:24;26.30;;;11.70;;
23634;SDS011;11994;51.038;16.974;2023-02-12T08:59:50;32.90;;;12.60;;
23634;SDS011;11994;51.038;16.974;2023-02-12T09:02:15;34.30;;;13.50;;
23634;SDS011;11994;51.038;16.974;2023-02-12T09:04:40;34.10;;;13.50;;
23634;SDS011;11994;51.038;16.974;2023-02-12T09:07:06;29.40;;;13.60;;
23634;SDS011;11994;51.038;16.974;2023-02-12T09:09:31;34.30;;;13.10;;
23634;SDS011;11994;51.038;16.974;2023-02-12T09:11:56;33.50;;;13.80;;
23634;SDS011;11994;51.038;16.974;2023-02-12T09:14:22;29.90;;;12.60;;
23634;SDS011;11994;51.038;16.974;2023-02-12T09:16:47;30.20;;;11.80;;
23634;SDS011;11994;51.038;16.974;2023-02-12T09:19:13;31.80;;;12.20;;
23634;SDS011;11994;51.038;16.974;2023-02-12T09:21:39;29.60;;;12.90;;
23634;SDS011;11994;51.038;16.974;2023-02-12T09:24:05;31.80;;;13.10;;
23634;SDS011;11994;51.038;16.974;2023-02-12T09:26:30;31.30;;;16.00;;
23634;SDS011;11994;51.038;16.974;2023-02-12T09:28:56;30.10;;;13.30;;
23634;SDS011;11994;51.038;16.974;2023-02-12T09:31:25;37.80;;;14.50;;
23634;SDS011;11994;51.038;16.974;2023-02-12T09:33:52;31.20;;;13.20;;
23634;SDS011;11994;51.038;16.974;2023-02-12T09:36:19;29.70;;;14.10;;
23634;SDS011;11994;51.038;16.974;2023-02-12T09:38:45;33.20;;;14.00;;
23634;SDS011;11994;51.038;16.974;2023-02-12T09:41:28;35.80;;;14.90;;
23634;SDS011;11994;51.038;16.974;2023-02-12T09:47:12;26.20;;;12.90;;
23634;SDS011;11994;51.038;16.974;2023-02-12T09:52:36;31.00;;;17.10;;
23634;SDS011;11994;51.038;16.974;2023-02-12T09:55:02;36.30;;;16.10;;
23634;SDS011;11994;51.038;16.974;2023-02-12T09:57:40;30.60;;;14.90;;
23634;SDS011;11994;51.038;16.974;2023-02-12T10:03:02;28.20;;;12.60;;
23634;SDS011;11994;51.038;16.974;2023-02-12T10:05:40;30.10;;;13.30;;
23634;SDS011;11994;51.038;16.974;2023-02-12T10:13:58;29.10;;;14.70;;
23634;SDS011;11994;51.038;16.974;2023-02-12T10:21:54;27.70;;;13.30;;
23634;SDS011;11994;51.038;16.974;2023-02-12T10:24:47;26.10;;;13.00;;
23634;SDS011;11994;51.038;16.974;2023-02-12T10:27:14;31.20;;;14.50;;
23634;SDS011;11994;51.038;16.974;2023-02-12T10:29:41;30.50;;;14.60;;
23634;SDS011;11994;51.038;16.974;2023-02-12T10:34:43;26.50;;;13.00;;
23634;SDS011;11994;51.038;16.974;2023-02-12T10:37:20;26.10;;;13.40;;
23634;SDS011;11994;51.038;16.974;2023-02-12T10:39:51;27.80;;;13.50;;
23634;SDS011;11994;51.038;16.974;2023-02-12T10:42:35;27.40;;;13.50;;
23634;SDS011;11994;51.038;16.974;2023-02-12T10:45:03;26.70;;;12.20;;
23634;SDS011;11994;51.038;16.974;2023-02-12T10:47:30;24.80;;;12.30;;
23634;SDS011;11994;51.038;16.974;2023-02-12T10:49:59;24.30;;;12.30;;
23634;SDS011;11994;51.038;16.974;2023-02-12T10:52:43;20.90;;;11.60;;
23634;SDS011;11994;51.038;16.974;2023-02-12T10:57:57;29.50;;;12.20;;
23634;SDS011;11994;51.038;16.974;2023-02-12T11:00:25;23.80;;;12.40;;
23634;SDS011;11994;51.038;16.974;2023-02-12T11:03:01;27.40;;;11.60;;
23634;SDS011;11994;51.038;16.974;2023-02-12T11:05:28;26.60;;;13.30;;
23634;SDS011;11994;51.038;16.974;2023-02-12T11:07:54;28.60;;;11.30;;
23634;SDS011;11994;51.038;16.974;2023-02-12T11:10:28;22.50;;;10.20;;
23634;SDS011;11994;51.038;16.974;2023-02-12T11:13:05;21.00;;;9.30;;
23634;SDS011;11994;51.038;16.974;2023-02-12T11:15:48;22.30;;;9.50;;
23634;SDS011;11994;51.038;16.974;2023-02-12T11:18:24;27.40;;;10.00;;
23634;SDS011;11994;51.038;16.974;2023-02-12T11:20:59;22.20;;;9.60;;
23634;SDS011;11994;51.038;16.974;2023-02-12T11:28:27;19.50;;;8.90;;
23634;SDS011;11994;51.038;16.974;2023-02-12T11:31:03;23.40;;;7.80;;
23634;SDS011;11994;51.038;16.974;2023-02-12T11:33:44;23.00;;;7.80;;
23634;SDS011;11994;51.038;16.974;2023-02-12T11:36:20;22.60;;;9.10;;
23634;SDS011;11994;51.038;16.974;2023-02-12T11:38:52;30.20;;;13.10;;
23634;SDS011;11994;51.038;16.974;2023-02-12T11:43:49;25.70;;;12.10;;
23634;SDS011;11994;51.038;16.974;2023-02-12T11:46:18;19.80;;;10.40;;
23634;SDS011;11994;51.038;16.974;2023-02-12T11:48:46;27.10;;;9.70;;
23634;SDS011;11994;51.038;16.974;2023-02-12T11:51:17;25.10;;;8.80;;
23634;SDS011;11994;51.038;16.974;2023-02-12T11:53:46;24.40;;;9.40;;
23634;SDS011;11994;51.038;16.974;2023-02-12T11:56:15;29.10;;;10.90;;
23634;SDS011;11994;51.038;16.974;2023-02-12T11:58:42;33.10;;;11.10;;
23634;SDS011;11994;51.038;16.974;2023-02-12T12:04:37;22.30;;;9.70;;
23634;SDS011;11994;51.038;16.974;2023-02-12T12:06:54;21.40;;;8.90;;
23634;SDS011;11994;51.038;16.974;2023-02-12T12:10:22;21.40;;;9.20;;
23634;SDS011;11994;51.038;16.974;2023-02-12T12:12:38;27.00;;;9.70;;
23634;SDS011;11994;51.038;16.974;2023-02-12T12:19:05;26.40;;;11.50;;
23634;SDS011;11994;51.038;16.974;2023-02-12T12:21:35;30.10;;;10.60;;
23634;SDS011;11994;51.038;16.974;2023-02-12T12:26:35;16.70;;;6.20;;
23634;SDS011;11994;51.038;16.974;2023-02-12T12:29:10;20.50;;;7.00;;
23634;SDS011;11994;51.038;16.974;2023-02-12T12:31:42;19.50;;;8.30;;
23634;SDS011;11994;51.038;16.974;2023-02-12T12:34:27;21.10;;;8.90;;
23634;SDS011;11994;51.038;16.974;2023-02-12T12:53:03;16.50;;;6.80;;
23634;SDS011;11994;51.038;16.974;2023-02-12T13:11:55;18.50;;;6.90;;
23634;SDS011;11994;51.038;16.974;2023-02-12T13:16:58;21.10;;;7.20;;
23634;SDS011;11994;51.038;16.974;2023-02-12T13:19:38;22.60;;;7.40;;
23634;SDS011;11994;51.038;16.974;2023-02-12T13:27:14;18.20;;;6.20;;
23634;SDS011;11994;51.038;16.974;2023-02-12T13:29:45;22.10;;;7.10;;
23634;SDS011;11994;51.038;16.974;2023-02-12T13:32:19;15.60;;;5.50;;
23634;SDS011;11994;51.038;16.974;2023-02-12T13:34:48;15.80;;;5.40;;
23634;SDS011;11994;51.038;16.974;2023-02-12T13:37:18;18.90;;;5.10;;
23634;SDS011;11994;51.038;16.974;2023-02-12T13:39:49;12.50;;;4.50;;
23634;SDS011;11994;51.038;16.974;2023-02-12T13:53:11;14.00;;;4.90;;
23634;SDS011;11994;51.038;16.974;2023-02-12T13:55:45;17.70;;;5.50;;
23634;SDS011;11994;51.038;16.974;2023-02-12T14:01:08;14.00;;;4.70;;
23634;SDS011;11994;51.038;16.974;2023-02-12T14:03:35;21.90;;;5.80;;
23634;SDS011;11994;51.038;16.974;2023-02-12T14:06:15;20.30;;;5.20;;
23634;SDS011;11994;51.038;16.974;2023-02-12T14:08:46;12.80;;;4.60;;
23634;SDS011;11994;51.038;16.974;2023-02-12T14:11:19;17.90;;;5.20;;
23634;SDS011;11994;51.038;16.974;2023-02-12T14:13:57;13.90;;;4.90;;
23634;SDS011;11994;51.038;16.974;2023-02-12T14:21:58;13.80;;;4.60;;
23634;SDS011;11994;51.038;16.974;2023-02-12T14:24:46;16.50;;;4.70;;
23634;SDS011;11994;51.038;16.974;2023-02-12T14:29:59;15.50;;;4.70;;
23634;SDS011;11994;51.038;16.974;2023-02-12T14:38:01;17.30;;;4.50;;
23634;SDS011;11994;51.038;16.974;2023-02-12T14:40:47;13.00;;;4.80;;
23634;SDS011;11994;51.038;16.974;2023-02-12T14:45:54;17.70;;;5.60;;
23634;SDS011;11994;51.038;16.974;2023-02-12T14:48:38;17.40;;;6.00;;
23634;SDS011;11994;51.038;16.974;2023-02-12T14:51:26;23.70;;;11.20;;
23634;SDS011;11994;51.038;16.974;2023-02-12T14:54:00;23.40;;;9.00;;
23634;SDS011;11994;51.038;16.974;2023-02-12T14:56:28;19.30;;;6.70;;
23634;SDS011;11994;51.038;16.974;2023-02-12T14:59:00;22.40;;;9.40;;
23634;SDS011;11994;51.038;16.974;2023-02-12T15:01:36;25.60;;;11.70;;
23634;SDS011;11994;51.038;16.974;2023-02-12T15:04:08;23.80;;;12.30;;
23634;SDS011;11994;51.038;16.974;2023-02-12T15:06:51;20.30;;;7.90;;
23634;SDS011;11994;51.038;16.974;2023-02-12T15:09:30;16.10;;;7.90;;
23634;SDS011;11994;51.038;16.974;2023-02-12T15:12:24;16.80;;;6.00;;
23634;SDS011;11994;51.038;16.974;2023-02-12T15:20:44;29.40;;;12.90;;
23634;SDS011;11994;51.038;16.974;2023-02-12T15:25:58;25.10;;;11.20;;
23634;SDS011;11994;51.038;16.974;2023-02-12T15:28:27;38.70;;;12.80;;
23634;SDS011;11994;51.038;16.974;2023-02-12T15:30:57;24.80;;;9.00;;
23634;SDS011;11994;51.038;16.974;2023-02-12T15:33:27;22.70;;;9.40;;
23634;SDS011;11994;51.038;16.974;2023-02-12T15:35:54;21.60;;;7.30;;
23634;SDS011;11994;51.038;16.974;2023-02-12T15:38:21;19.30;;;7.10;;
23634;SDS011;11994;51.038;16.974;2023-02-12T15:40:53;16.20;;;6.40;;
23634;SDS011;11994;51.038;16.974;2023-02-12T15:43:20;21.10;;;7.90;;
23634;SDS011;11994;51.038;16.974;2023-02-12T15:45:49;27.90;;;11.60;;
23634;SDS011;11994;51.038;16.974;2023-02-12T15:48:17;23.90;;;9.30;;
23634;SDS011;11994;51.038;16.974;2023-02-12T15:50:52;20.60;;;9.30;;
23634;SDS011;11994;51.038;16.974;2023-02-12T15:53:37;23.30;;;9.80;;
23634;SDS011;11994;51.038;16.974;2023-02-12T15:56:03;24.60;;;10.30;;
23634;SDS011;11994;51.038;16.974;2023-02-12T15:58:46;26.70;;;10.50;;
23634;SDS011;11994;51.038;16.974;2023-02-12T16:01:16;26.30;;;9.50;;
23634;SDS011;11994;51.038;16.974;2023-02-12T16:03:50;21.80;;;10.30;;
23634;SDS011;11994;51.038;16.974;2023-02-12T16:06:21;26.20;;;10.70;;
23634;SDS011;11994;51.038;16.974;2023-02-12T16:08:50;22.70;;;10.60;;
23634;SDS011;11994;51.038;16.974;2023-02-12T16:11:22;25.10;;;10.80;;
23634;SDS011;11994;51.038;16.974;2023-02-12T16:16:19;26.90;;;12.40;;
23634;SDS011;11994;51.038;16.974;2023-02-12T16:18:45;32.30;;;14.10;;
23634;SDS011;11994;51.038;16.974;2023-02-12T16:21:14;27.30;;;14.30;;
23634;SDS011;11994;51.038;16.974;2023-02-12T16:23:47;29.10;;;15.20;;
23634;SDS011;11994;51.038;16.974;2023-02-12T16:26:18;24.40;;;12.80;;
23634;SDS011;11994;51.038;16.974;2023-02-12T16:28:47;27.80;;;11.70;;
23634;SDS011;11994;51.038;16.974;2023-02-12T16:31:14;26.20;;;11.80;;
23634;SDS011;11994;51.038;16.974;2023-02-12T16:33:45;26.30;;;12.10;;
23634;SDS011;11994;51.038;16.974;2023-02-12T16:38:48;26.40;;;12.20;;
23634;SDS011;11994;51.038;16.974;2023-02-12T16:43:39;28.30;;;13.30;;
23634;SDS011;11994;51.038;16.974;2023-02-12T16:46:05;23.20;;;12.90;;
23634;SDS011;11994;51.038;16.974;2023-02-12T16:48:35;25.80;;;12.80;;
23634;SDS011;11994;51.038;16.974;2023-02-12T16:51:05;26.30;;;12.60;;
23634;SDS011;11994;51.038;16.974;2023-02-12T16:53:48;24.80;;;12.90;;
23634;SDS011;11994;51.038;16.974;2023-02-12T16:56:18;22.50;;;11.60;;
23634;SDS011;11994;51.038;16.974;2023-02-12T16:58:45;24.40;;;11.90;;
23634;SDS011;11994;51.038;16.974;2023-02-12T17:01:21;21.70;;;12.60;;
23634;SDS011;11994;51.038;16.974;2023-02-12T17:03:51;25.00;;;12.90;;
23634;SDS011;11994;51.038;16.974;2023-02-12T17:06:18;24.10;;;13.30;;
23634;SDS011;11994;51.038;16.974;2023-02-12T17:08:45;23.90;;;12.70;;
23634;SDS011;11994;51.038;16.974;2023-02-12T17:11:11;27.10;;;11.90;;
23634;SDS011;11994;51.038;16.974;2023-02-12T17:13:38;28.60;;;15.00;;
23634;SDS011;11994;51.038;16.974;2023-02-12T17:16:03;35.70;;;18.60;;